Time;durP1;ratioP1;P1;durP2;ratioP2;P2;SDS_P1;SDS_P2;PMS_P1;PMS_P2;Temp;Humidity;BMP_temperature;BMP_pressure;BME280_temperature;BME280_humidity;BME280_pressure;Samples;Min_cycle;Max_cycle;Signal;HPM_P1;HPM_P2
2022/03/02 00:04:00;;;;;;;37.07;17.10;;;;;;;;;;10347336;28;20068;-71
2022/03/02 00:09:00;;;;;;;35.50;17.77;;;;;;;;;;10279359;28;20254;-72
2022/03/02 00:14:02;;;;;;;38.92;18.35;;;;;;;;;;10363397;28;20039;-76
2022/03/02 00:19:05;;;;;;;31.63;16.98;;;;;;;;;;10363610;28;20031;-72
2022/03/02 00:24:06;;;;;;;42.03;18.88;;;;;;;;;;10321501;28;20038;-75
2022/03/02 00:29:06;;;;;;;60.10;22.63;;;;;;;;;;10318238;28;20037;-73
2022/03/02 00:34:06;;;;;;;49.42;23.20;;;;;;;;;;10318366;28;20048;-73
2022/03/02 00:39:07;;;;;;;58.50;22.08;;;;;;;;;;10318816;28;20026;-74
2022/03/02 00:44:07;;;;;;;43.70;23.15;;;;;;;;;;10318634;28;20034;-74
2022/03/02 00:49:08;;;;;;;35.10;18.77;;;;;;;;;;10318318;28;20550;-72
2022/03/02 00:54:09;;;;;;;38.63;18.80;;;;;;;;;;10306607;28;20027;-73
2022/03/02 00:59:09;;;;;;;33.10;18.98;;;;;;;;;;10362598;28;20026;-72
2022/03/02 01:04:09;;;;;;;35.20;17.73;;;;;;;;;;10362098;28;20113;-72
2022/03/02 01:09:10;;;;;;;36.87;16.80;;;;;;;;;;10362160;28;20022;-72
2022/03/02 01:14:10;;;;;;;27.38;15.52;;;;;;;;;;10361932;28;20302;-72
2022/03/02 01:19:10;;;;;;;28.77;15.52;;;;;;;;;;10372972;28;20030;-72
2022/03/02 01:24:11;;;;;;;31.40;14.37;;;;;;;;;;10304398;28;20035;-73
2022/03/02 01:29:12;;;;;;;36.25;18.65;;;;;;;;;;10317089;28;20042;-73
2022/03/02 01:34:12;;;;;;;37.42;20.33;;;;;;;;;;10317282;28;20056;-74
2022/03/02 01:39:12;;;;;;;36.70;19.60;;;;;;;;;;10318217;28;20048;-72
2022/03/02 01:44:13;;;;;;;48.25;22.83;;;;;;;;;;10324579;28;20460;-74
2022/03/02 01:49:13;;;;;;;45.75;23.25;;;;;;;;;;10323751;28;20053;-74
2022/03/02 01:54:13;;;;;;;39.90;20.63;;;;;;;;;;10316868;28;20440;-71
2022/03/02 01:59:13;;;;;;;46.40;21.27;;;;;;;;;;10299165;28;20037;-70
2022/03/02 02:04:14;;;;;;;40.93;21.73;;;;;;;;;;10323132;28;20030;-71
2022/03/02 02:09:14;;;;;;;43.72;22.17;;;;;;;;;;10301401;28;20031;-73
2022/03/02 02:14:15;;;;;;;41.00;22.30;;;;;;;;;;10367645;28;20047;-73
2022/03/02 02:19:15;;;;;;;48.03;22.53;;;;;;;;;;10344501;28;20026;-73
2022/03/02 02:24:15;;;;;;;39.70;19.05;;;;;;;;;;10282532;28;20030;-71
2022/03/02 02:29:17;;;;;;;42.83;22.02;;;;;;;;;;10285365;28;20019;-72
2022/03/02 02:34:17;;;;;;;36.50;19.17;;;;;;;;;;10322161;28;20413;-73
2022/03/02 02:39:17;;;;;;;32.22;21.10;;;;;;;;;;10304628;28;20478;-73
2022/03/02 02:44:18;;;;;;;34.50;17.63;;;;;;;;;;10369137;28;20026;-72
2022/03/02 02:49:18;;;;;;;35.27;15.70;;;;;;;;;;10281884;28;20027;-71
2022/03/02 02:54:18;;;;;;;24.20;14.07;;;;;;;;;;10281816;28;20126;-72
2022/03/02 02:59:18;;;;;;;38.60;18.40;;;;;;;;;;10281866;28;20027;-70
2022/03/02 03:04:19;;;;;;;30.27;20.30;;;;;;;;;;10281308;28;20018;-72
2022/03/02 03:09:19;;;;;;;32.00;16.83;;;;;;;;;;10295026;28;20018;-72
2022/03/02 03:14:19;;;;;;;31.55;18.17;;;;;;;;;;10321237;28;20046;-71
2022/03/02 03:19:20;;;;;;;31.50;18.13;;;;;;;;;;10321134;28;20034;-73
2022/03/02 03:24:20;;;;;;;24.90;13.97;;;;;;;;;;10308886;28;20039;-71
2022/03/02 03:29:20;;;;;;;28.80;14.80;;;;;;;;;;10320694;28;20273;-71
2022/03/02 03:34:21;;;;;;;25.88;14.77;;;;;;;;;;10320409;28;20023;-70
2022/03/02 03:39:21;;;;;;;19.23;11.73;;;;;;;;;;10309463;28;20023;-71
2022/03/02 03:44:22;;;;;;;19.47;12.20;;;;;;;;;;10283618;28;20027;-72
2022/03/02 03:49:22;;;;;;;22.00;12.48;;;;;;;;;;10279556;28;20270;-72
2022/03/02 03:54:23;;;;;;;23.40;12.77;;;;;;;;;;10280110;28;20440;-73
2022/03/02 03:59:23;;;;;;;31.33;10.40;;;;;;;;;;10295967;28;20384;-73
2022/03/02 04:04:23;;;;;;;18.10;10.68;;;;;;;;;;10278524;28;20015;-71
2022/03/02 04:09:23;;;;;;;22.08;10.75;;;;;;;;;;10318811;28;20045;-73
2022/03/02 04:14:24;;;;;;;19.40;12.13;;;;;;;;;;10316210;28;20265;-71
2022/03/02 04:19:24;;;;;;;20.00;10.32;;;;;;;;;;10291318;28;20394;-71
2022/03/02 04:24:24;;;;;;;18.23;10.82;;;;;;;;;;10278961;28;20034;-71
2022/03/02 04:29:24;;;;;;;21.95;11.15;;;;;;;;;;10279108;28;20022;-71
2022/03/02 04:34:25;;;;;;;22.67;12.65;;;;;;;;;;10314259;28;20149;-73
2022/03/02 04:39:25;;;;;;;18.83;10.90;;;;;;;;;;10318335;28;20084;-72
2022/03/02 04:44:25;;;;;;;20.73;10.97;;;;;;;;;;10287147;28;20023;-71
2022/03/02 04:49:26;;;;;;;20.57;10.67;;;;;;;;;;10292261;28;20015;-71
2022/03/02 04:59:45;;;;;;;14.32;9.70;;;;;;;;;;10279984;28;20061;-72
2022/03/02 05:04:45;;;;;;;16.77;8.88;;;;;;;;;;10317087;28;20022;-71
2022/03/02 05:09:45;;;;;;;19.33;10.50;;;;;;;;;;10317282;28;20042;-75
2022/03/02 05:14:46;;;;;;;16.20;10.13;;;;;;;;;;10310832;28;20297;-75
2022/03/02 05:19:46;;;;;;;22.25;12.25;;;;;;;;;;10277705;28;20027;-72
2022/03/02 05:24:46;;;;;;;20.27;12.87;;;;;;;;;;10289788;28;20061;-73
2022/03/02 05:29:46;;;;;;;16.45;9.55;;;;;;;;;;10317551;28;20030;-75
2022/03/02 05:34:47;;;;;;;19.10;10.43;;;;;;;;;;10315144;28;20030;-71
2022/03/02 05:39:47;;;;;;;19.13;12.65;;;;;;;;;;10288394;28;20402;-72
2022/03/02 05:44:49;;;;;;;18.88;10.95;;;;;;;;;;10274699;28;20027;-73
2022/03/02 05:49:50;;;;;;;16.58;10.57;;;;;;;;;;10286464;28;20030;-73
2022/03/02 05:54:51;;;;;;;19.50;12.15;;;;;;;;;;10315570;28;20086;-73
2022/03/02 05:59:52;;;;;;;25.67;12.82;;;;;;;;;;10306652;28;20649;-74
2022/03/02 06:04:52;;;;;;;20.05;12.40;;;;;;;;;;10314234;28;20159;-73
2022/03/02 06:09:52;;;;;;;24.40;13.73;;;;;;;;;;10316415;28;20455;-72
2022/03/02 06:14:53;;;;;;;22.92;14.05;;;;;;;;;;10290515;28;20410;-73
2022/03/02 06:19:53;;;;;;;23.95;13.50;;;;;;;;;;10270386;28;20034;-73
2022/03/02 06:24:54;;;;;;;29.05;14.07;;;;;;;;;;10273898;28;20407;-73
2022/03/02 06:29:54;;;;;;;22.35;13.57;;;;;;;;;;10279402;28;20022;-74
2022/03/02 06:34:55;;;;;;;21.10;12.75;;;;;;;;;;10278538;28;20398;-74
2022/03/02 06:39:55;;;;;;;23.35;13.63;;;;;;;;;;10282638;28;20110;-75
2022/03/02 06:44:59;;;;;;;18.50;11.73;;;;;;;;;;10281511;28;20054;-74
2022/03/02 06:50:03;;;;;;;29.65;13.80;;;;;;;;;;10280652;28;20027;-76
2022/03/02 06:55:07;;;;;;;30.10;14.48;;;;;;;;;;10283672;28;20114;-75
2022/03/02 07:00:12;;;;;;;25.65;14.35;;;;;;;;;;10280699;28;20137;-74
2022/03/02 07:05:13;;;;;;;24.25;13.85;;;;;;;;;;10280440;28;20156;-74
2022/03/02 07:10:13;;;;;;;20.52;12.13;;;;;;;;;;10281893;28;20563;-74
2022/03/02 07:15:13;;;;;;;22.55;13.52;;;;;;;;;;10280333;28;20429;-77
2022/03/02 07:20:14;;;;;;;28.77;14.77;;;;;;;;;;10280231;28;20594;-73
2022/03/02 07:25:29;;;;;;;37.20;14.03;;;;;;;;;;10281386;28;20347;-73
2022/03/02 07:30:29;;;;;;;22.17;12.50;;;;;;;;;;10280041;28;20019;-73
2022/03/02 07:35:31;;;;;;;27.95;12.50;;;;;;;;;;10279577;28;20083;-75
2022/03/02 07:40:32;;;;;;;21.13;12.32;;;;;;;;;;10278678;28;20545;-75
2022/03/02 07:45:32;;;;;;;24.80;12.48;;;;;;;;;;10280218;28;20065;-74
2022/03/02 07:50:33;;;;;;;24.80;13.95;;;;;;;;;;10279184;28;20398;-74
2022/03/02 07:55:33;;;;;;;26.30;13.95;;;;;;;;;;10279228;28;20030;-75
2022/03/02 08:00:34;;;;;;;34.13;15.15;;;;;;;;;;10280177;28;20137;-75
2022/03/02 08:05:34;;;;;;;34.33;13.55;;;;;;;;;;10279064;28;20144;-75
2022/03/02 08:10:34;;;;;;;31.83;14.27;;;;;;;;;;10279016;28;20098;-74
2022/03/02 08:15:35;;;;;;;33.87;16.07;;;;;;;;;;10280093;28;20182;-72
2022/03/02 08:20:36;;;;;;;33.38;15.27;;;;;;;;;;10279665;28;20452;-76
2022/03/02 08:25:36;;;;;;;31.00;16.27;;;;;;;;;;10278774;28;20027;-75
2022/03/02 08:30:37;;;;;;;38.47;16.40;;;;;;;;;;10278512;28;20022;-73
2022/03/02 08:35:38;;;;;;;35.67;16.77;;;;;;;;;;10278740;28;20031;-74
2022/03/02 08:40:39;;;;;;;34.88;15.20;;;;;;;;;;10278114;28;20623;-73
2022/03/02 08:45:39;;;;;;;30.40;15.57;;;;;;;;;;10278057;28;20030;-75
2022/03/02 08:50:40;;;;;;;51.92;19.00;;;;;;;;;;10277473;28;20391;-73
2022/03/02 08:55:41;;;;;;;25.50;14.32;;;;;;;;;;10277468;28;20034;-72
2022/03/02 09:00:42;;;;;;;27.30;13.80;;;;;;;;;;10277789;28;20495;-74
2022/03/02 09:05:42;;;;;;;26.37;14.17;;;;;;;;;;10277477;28;20027;-73
2022/03/02 09:10:43;;;;;;;33.22;14.23;;;;;;;;;;10277263;28;20258;-73
2022/03/02 09:15:43;;;;;;;30.37;13.27;;;;;;;;;;10276805;28;20039;-74
2022/03/02 09:20:44;;;;;;;32.97;15.53;;;;;;;;;;10276711;28;20095;-75
2022/03/02 09:25:45;;;;;;;28.95;14.48;;;;;;;;;;10276539;28;20035;-73
2022/03/02 09:30:46;;;;;;;38.28;15.55;;;;;;;;;;10276945;28;20027;-75
2022/03/02 09:35:46;;;;;;;28.58;13.45;;;;;;;;;;10276333;28;20038;-74
2022/03/02 09:40:48;;;;;;;27.27;15.02;;;;;;;;;;10276410;28;20029;-74
2022/03/02 09:45:51;;;;;;;27.42;14.65;;;;;;;;;;10277584;28;20100;-74
2022/03/02 09:50:56;;;;;;;34.67;14.20;;;;;;;;;;10275655;28;20027;-74
2022/03/02 09:55:57;;;;;;;28.52;13.10;;;;;;;;;;10275823;28;20088;-74
2022/03/02 10:00:58;;;;;;;29.38;11.98;;;;;;;;;;10279470;28;20296;-75
2022/03/02 10:06:01;;;;;;;25.05;12.40;;;;;;;;;;10282835;28;20035;-75
2022/03/02 10:11:03;;;;;;;25.13;11.90;;;;;;;;;;10283048;28;20055;-76
2022/03/02 10:16:04;;;;;;;22.25;10.90;;;;;;;;;;10282233;28;20661;-75
2022/03/02 10:21:05;;;;;;;28.25;12.40;;;;;;;;;;10282365;28;20031;-74
2022/03/02 10:26:10;;;;;;;22.50;12.38;;;;;;;;;;10283519;28;20034;-75
2022/03/02 10:31:13;;;;;;;26.88;11.52;;;;;;;;;;10281988;28;20105;-74
2022/03/02 10:36:14;;;;;;;24.77;11.35;;;;;;;;;;10282202;28;20058;-76
2022/03/02 10:41:17;;;;;;;26.55;11.93;;;;;;;;;;10281695;28;20160;-74
2022/03/02 10:46:19;;;;;;;17.35;9.73;;;;;;;;;;10297619;28;20035;-75
2022/03/02 10:51:23;;;;;;;22.95;10.38;;;;;;;;;;10282613;28;20027;-74
2022/03/02 10:56:26;;;;;;;19.15;11.10;;;;;;;;;;10280748;28;20030;-74
2022/03/02 11:01:26;;;;;;;21.70;12.27;;;;;;;;;;10280771;28;20027;-74
2022/03/02 11:06:28;;;;;;;23.85;12.43;;;;;;;;;;10280594;28;20026;-75
2022/03/02 11:11:29;;;;;;;21.48;12.10;;;;;;;;;;10280438;28;20058;-74
2022/03/02 11:16:30;;;;;;;27.00;11.82;;;;;;;;;;10282002;28;20076;-74
2022/03/02 11:21:31;;;;;;;18.60;10.30;;;;;;;;;;10280144;28;20527;-74
2022/03/02 11:26:34;;;;;;;27.70;10.93;;;;;;;;;;10280095;28;20397;-74
2022/03/02 11:31:55;;;;;;;19.63;10.73;;;;;;;;;;10279925;28;20030;-73
2022/03/02 11:36:56;;;;;;;27.42;9.88;;;;;;;;;;10279567;28;20039;-75
2022/03/02 11:42:01;;;;;;;20.70;10.35;;;;;;;;;;10279175;28;20379;-74
2022/03/02 11:47:05;;;;;;;18.40;10.82;;;;;;;;;;10263994;28;20062;-74
2022/03/02 11:52:07;;;;;;;22.55;10.95;;;;;;;;;;10280465;28;20026;-73
2022/03/02 11:57:07;;;;;;;28.83;10.90;;;;;;;;;;10279997;28;20106;-74
2022/03/02 12:02:18;;;;;;;17.30;9.50;;;;;;;;;;10279029;28;20027;-75
2022/03/02 12:07:18;;;;;;;22.20;11.52;;;;;;;;;;10280054;28;20046;-73
2022/03/02 12:12:22;;;;;;;18.35;10.57;;;;;;;;;;10279887;28;20387;-74
2022/03/02 12:17:24;;;;;;;15.98;8.88;;;;;;;;;;10280569;28;20089;-73
2022/03/02 12:22:31;;;;;;;15.70;7.53;;;;;;;;;;10278159;28;20382;-73
2022/03/02 12:27:31;;;;;;;14.57;7.70;;;;;;;;;;10278411;28;20104;-74
2022/03/02 12:32:33;;;;;;;22.77;9.60;;;;;;;;;;10362815;28;20359;-73
2022/03/02 12:37:34;;;;;;;25.33;11.68;;;;;;;;;;10294132;28;20299;-74
2022/03/02 12:42:34;;;;;;;22.75;10.80;;;;;;;;;;10277993;28;20041;-74
2022/03/02 12:47:35;;;;;;;23.52;11.57;;;;;;;;;;10279285;28;20033;-74
2022/03/02 12:52:35;;;;;;;16.95;8.43;;;;;;;;;;10277513;28;20030;-73
2022/03/02 12:57:36;;;;;;;17.52;8.73;;;;;;;;;;10361903;28;20460;-74
2022/03/02 13:02:37;;;;;;;21.05;10.60;;;;;;;;;;10377900;28;20049;-74
2022/03/02 13:07:40;;;;;;;20.40;9.70;;;;;;;;;;10316735;28;20461;-74
2022/03/02 13:12:41;;;;;;;19.08;10.00;;;;;;;;;;10298346;28;20022;-73
2022/03/02 13:17:41;;;;;;;23.67;10.45;;;;;;;;;;10293495;28;20367;-75
2022/03/02 13:22:42;;;;;;;26.60;11.17;;;;;;;;;;10311341;28;20042;-73
2022/03/02 13:28:01;;;;;;;24.48;11.88;;;;;;;;;;10276719;28;20031;-75
2022/03/02 13:33:03;;;;;;;25.30;12.32;;;;;;;;;;10276460;28;20030;-74
2022/03/02 13:38:07;;;;;;;20.40;10.18;;;;;;;;;;10282003;28;20456;-74
2022/03/02 13:43:11;;;;;;;22.60;11.45;;;;;;;;;;10294366;28;20050;-74
2022/03/02 13:48:18;;;;;;;23.80;10.70;;;;;;;;;;10282849;28;20059;-75
2022/03/02 13:53:29;;;;;;;15.52;10.57;;;;;;;;;;10283185;28;20034;-74
2022/03/02 13:58:30;;;;;;;20.52;11.15;;;;;;;;;;10283211;28;20112;-75
2022/03/02 14:03:32;;;;;;;20.98;10.95;;;;;;;;;;10283018;28;20407;-75
2022/03/02 14:08:46;;;;;;;29.25;10.90;;;;;;;;;;10282508;28;20106;-75
2022/03/02 14:13:46;;;;;;;22.92;11.65;;;;;;;;;;10283332;28;20081;-76
2022/03/02 14:18:47;;;;;;;22.90;10.32;;;;;;;;;;10284201;28;20035;-73
2022/03/02 14:23:49;;;;;;;24.58;12.30;;;;;;;;;;10282356;28;20018;-73
2022/03/02 14:28:49;;;;;;;26.05;11.57;;;;;;;;;;10281556;28;20133;-75
2022/03/02 14:33:54;;;;;;;21.57;12.47;;;;;;;;;;10281675;28;20026;-74
2022/03/02 14:39:00;;;;;;;22.17;11.50;;;;;;;;;;10281997;28;20452;-74
2022/03/02 14:44:01;;;;;;;21.30;11.68;;;;;;;;;;10266004;28;20035;-74
2022/03/02 14:49:05;;;;;;;21.13;11.20;;;;;;;;;;10281570;28;20030;-75
2022/03/02 14:54:11;;;;;;;20.13;12.57;;;;;;;;;;10287162;28;20026;-76
2022/03/02 14:59:12;;;;;;;21.10;12.57;;;;;;;;;;10284799;28;20034;-76
2022/03/02 15:04:12;;;;;;;24.75;12.77;;;;;;;;;;10280501;28;20023;-76
2022/03/02 15:09:14;;;;;;;19.02;11.23;;;;;;;;;;10281429;28;20035;-77
2022/03/02 15:19:47;;;;;;;21.65;14.00;;;;;;;;;;10282229;28;20404;-76
2022/03/02 15:24:48;;;;;;;25.15;13.13;;;;;;;;;;10280686;28;20031;-78
2022/03/02 15:29:49;;;;;;;22.45;12.52;;;;;;;;;;10281071;28;20022;-76
2022/03/02 15:34:53;;;;;;;25.47;13.70;;;;;;;;;;10279271;28;20065;-77
2022/03/02 15:39:55;;;;;;;39.35;14.32;;;;;;;;;;10279480;28;20035;-76
2022/03/02 15:45:05;;;;;;;21.95;13.23;;;;;;;;;;10279738;28;20027;-76
2022/03/02 15:50:10;;;;;;;23.45;12.65;;;;;;;;;;10279315;28;20022;-75
2022/03/02 15:55:15;;;;;;;24.85;13.02;;;;;;;;;;10278967;28;20460;-76
2022/03/02 16:00:16;;;;;;;25.80;12.30;;;;;;;;;;10279676;28;20027;-76
2022/03/02 16:05:17;;;;;;;28.08;14.35;;;;;;;;;;10285796;28;20031;-75
2022/03/02 16:10:17;;;;;;;19.67;10.93;;;;;;;;;;10299151;28;20208;-77
2022/03/02 16:15:38;;;;;;;23.80;12.52;;;;;;;;;;10318950;28;20042;-76
2022/03/02 16:20:38;;;;;;;20.50;11.52;;;;;;;;;;10318554;28;20023;-75
2022/03/02 16:25:43;;;;;;;25.20;13.43;;;;;;;;;;10282998;28;20473;-75
2022/03/02 16:30:46;;;;;;;29.77;14.00;;;;;;;;;;10277807;28;20169;-75
2022/03/02 16:35:47;;;;;;;25.67;15.15;;;;;;;;;;10277630;28;20027;-76
2022/03/02 16:40:48;;;;;;;21.67;14.20;;;;;;;;;;10277909;28;20027;-77
2022/03/02 16:45:50;;;;;;;29.63;13.40;;;;;;;;;;10277513;28;20023;-76
2022/03/02 16:50:50;;;;;;;23.90;12.55;;;;;;;;;;10298577;28;20068;-76
2022/03/02 16:55:51;;;;;;;23.13;13.10;;;;;;;;;;10315260;28;20160;-83
2022/03/02 17:00:51;;;;;;;29.27;15.30;;;;;;;;;;10329899;28;20438;-74
2022/03/02 17:05:51;;;;;;;20.23;11.77;;;;;;;;;;10342557;28;20361;-74
2022/03/02 17:10:53;;;;;;;24.55;13.75;;;;;;;;;;10405380;28;20027;-75
2022/03/02 17:15:53;;;;;;;21.95;13.85;;;;;;;;;;10313498;28;20043;-75
2022/03/02 17:20:54;;;;;;;23.65;13.15;;;;;;;;;;10342666;28;20611;-79
2022/03/02 17:25:54;;;;;;;22.45;13.55;;;;;;;;;;10511097;28;20051;-79
2022/03/02 17:30:54;;;;;;;27.17;14.18;;;;;;;;;;10525715;28;20085;-81
2022/03/02 17:35:55;;;;;;;24.35;13.80;;;;;;;;;;10319741;28;20022;-76
2022/03/02 17:40:55;;;;;;;25.50;14.15;;;;;;;;;;10315348;28;20465;-76
2022/03/02 17:45:55;;;;;;;22.70;16.63;;;;;;;;;;10452462;28;20047;-78
2022/03/02 17:50:55;;;;;;;25.92;15.13;;;;;;;;;;10503227;28;20030;-74
2022/03/02 17:55:56;;;;;;;24.70;13.10;;;;;;;;;;10309048;28;20041;-79
2022/03/02 18:00:56;;;;;;;23.10;14.25;;;;;;;;;;10355496;28;20109;-80
2022/03/02 18:05:57;;;;;;;26.35;14.60;;;;;;;;;;10336396;28;20044;-80
2022/03/02 18:10:57;;;;;;;23.05;14.65;;;;;;;;;;10316007;28;20048;-75
2022/03/02 18:15:58;;;;;;;24.15;14.13;;;;;;;;;;10313257;28;20050;-75
2022/03/02 18:20:59;;;;;;;25.23;15.93;;;;;;;;;;10299093;28;20041;-74
2022/03/02 18:26:12;;;;;;;32.42;17.45;;;;;;;;;;10340739;28;20484;-75
2022/03/02 18:31:12;;;;;;;27.67;16.55;;;;;;;;;;10319767;28;20554;-75
2022/03/02 18:36:12;;;;;;;27.60;15.40;;;;;;;;;;10280840;28;20049;-76
2022/03/02 18:41:13;;;;;;;30.75;17.48;;;;;;;;;;10285968;28;20517;-75
2022/03/02 18:46:14;;;;;;;25.77;14.70;;;;;;;;;;10280540;28;20033;-77
2022/03/02 18:51:15;;;;;;;26.20;14.88;;;;;;;;;;10367444;28;20351;-81
2022/03/02 18:56:15;;;;;;;32.50;19.13;;;;;;;;;;10322738;28;20127;-78
2022/03/02 19:01:16;;;;;;;30.00;17.63;;;;;;;;;;10342972;28;20593;-79
2022/03/02 19:06:16;;;;;;;25.95;17.40;;;;;;;;;;10281370;28;20433;-75
2022/03/02 19:11:17;;;;;;;26.40;17.67;;;;;;;;;;10441715;28;20031;-78
2022/03/02 19:16:17;;;;;;;35.88;18.85;;;;;;;;;;10532550;28;20059;-77
2022/03/02 19:21:19;;;;;;;39.10;19.63;;;;;;;;;;10330602;28;20084;-81
2022/03/02 19:26:22;;;;;;;31.00;17.50;;;;;;;;;;10280048;28;20031;-75
2022/03/02 19:31:24;;;;;;;27.98;17.35;;;;;;;;;;10278271;28;20037;-76
2022/03/02 19:36:24;;;;;;;27.85;19.05;;;;;;;;;;10278843;28;20505;-76
2022/03/02 19:41:27;;;;;;;38.05;20.55;;;;;;;;;;10294411;28;20565;-73
2022/03/02 19:46:27;;;;;;;30.65;18.77;;;;;;;;;;10318625;28;20038;-75
2022/03/02 19:51:30;;;;;;;30.50;17.30;;;;;;;;;;10347457;28;20032;-75
2022/03/02 19:56:33;;;;;;;30.25;17.83;;;;;;;;;;10416641;28;20486;-76
2022/03/02 20:01:33;;;;;;;29.73;16.13;;;;;;;;;;10318014;28;20030;-75
2022/03/02 20:06:33;;;;;;;33.53;18.87;;;;;;;;;;10319264;28;20504;-73
2022/03/02 20:11:35;;;;;;;35.03;18.30;;;;;;;;;;10317183;28;20653;-77
2022/03/02 20:16:35;;;;;;;23.00;15.52;;;;;;;;;;10318204;28;20058;-76
2022/03/02 20:21:36;;;;;;;30.93;17.47;;;;;;;;;;10317029;28;20485;-74
2022/03/02 20:26:37;;;;;;;38.75;15.98;;;;;;;;;;10317644;28;20672;-75
2022/03/02 20:31:37;;;;;;;28.73;15.48;;;;;;;;;;10317016;28;20022;-74
2022/03/02 20:36:38;;;;;;;28.65;19.42;;;;;;;;;;10450710;28;20050;-74
2022/03/02 20:41:39;;;;;;;29.02;18.00;;;;;;;;;;10334749;28;20033;-74
2022/03/02 20:46:39;;;;;;;34.93;17.43;;;;;;;;;;10276998;28;20038;-74
2022/03/02 20:51:39;;;;;;;27.17;18.92;;;;;;;;;;10277642;28;20019;-74
2022/03/02 20:56:40;;;;;;;30.92;17.70;;;;;;;;;;10322746;28;20032;-75
2022/03/02 21:01:40;;;;;;;33.03;20.07;;;;;;;;;;10357807;28;20034;-74
2022/03/02 21:06:41;;;;;;;36.20;18.98;;;;;;;;;;10296132;28;20282;-74
2022/03/02 21:11:41;;;;;;;28.13;18.47;;;;;;;;;;10276100;28;20048;-74
2022/03/02 21:16:41;;;;;;;34.15;22.23;;;;;;;;;;10294127;28;20529;-74
2022/03/02 21:21:41;;;;;;;25.83;17.77;;;;;;;;;;10527167;28;20473;-75
2022/03/02 21:26:45;;;;;;;28.88;17.95;;;;;;;;;;10527206;28;20032;-74
2022/03/02 21:31:45;;;;;;;29.42;16.30;;;;;;;;;;10526912;28;20027;-74
2022/03/02 21:36:46;;;;;;;28.27;16.63;;;;;;;;;;10477268;28;20033;-74
2022/03/02 21:41:46;;;;;;;29.40;17.38;;;;;;;;;;10275411;28;20053;-77
2022/03/02 21:46:46;;;;;;;29.92;16.45;;;;;;;;;;10275297;28;20026;-75
2022/03/02 21:51:46;;;;;;;25.50;15.05;;;;;;;;;;10276139;28;20022;-74
2022/03/02 21:56:49;;;;;;;28.17;17.52;;;;;;;;;;10316638;28;20026;-74
2022/03/02 22:01:49;;;;;;;26.77;15.77;;;;;;;;;;10440276;28;20028;-74
2022/03/02 22:06:49;;;;;;;25.42;16.40;;;;;;;;;;10357080;28;20038;-74
2022/03/02 22:11:49;;;;;;;26.35;17.50;;;;;;;;;;10281735;28;20034;-74
2022/03/02 22:16:51;;;;;;;24.10;15.93;;;;;;;;;;10282515;28;20121;-74
2022/03/02 22:21:51;;;;;;;26.50;17.70;;;;;;;;;;10281441;28;20042;-76
2022/03/02 22:26:51;;;;;;;21.80;16.17;;;;;;;;;;10281594;28;20039;-76
2022/03/02 22:31:52;;;;;;;26.92;13.48;;;;;;;;;;10281798;28;20019;-77
2022/03/02 22:36:52;;;;;;;28.42;15.43;;;;;;;;;;10281355;28;20037;-72
2022/03/02 22:41:52;;;;;;;30.33;14.05;;;;;;;;;;10294963;28;20127;-74
2022/03/02 22:46:55;;;;;;;28.27;15.13;;;;;;;;;;10321529;28;20100;-74
2022/03/02 22:51:55;;;;;;;28.10;16.58;;;;;;;;;;10321023;28;20026;-73
2022/03/02 22:56:56;;;;;;;27.00;16.25;;;;;;;;;;10346354;28;20026;-77
2022/03/02 23:02:12;;;;;;;25.83;14.32;;;;;;;;;;10361990;28;20030;-75
2022/03/02 23:17:51;;;;;;;23.42;14.80;;;;;;;;;;10301444;28;20043;-73
2022/03/02 23:22:51;;;;;;;31.05;15.93;;;;;;;;;;10280318;28;20019;-75
2022/03/02 23:27:52;;;;;;;25.95;15.70;;;;;;;;;;10308714;28;20026;-74
2022/03/02 23:32:52;;;;;;;28.23;16.58;;;;;;;;;;10319869;28;20025;-73
2022/03/02 23:37:53;;;;;;;21.65;14.27;;;;;;;;;;10321344;28;20102;-73
2022/03/02 23:42:53;;;;;;;31.70;13.98;;;;;;;;;;10287446;28;20031;-74
2022/03/02 23:47:53;;;;;;;25.73;15.05;;;;;;;;;;10280337;28;20031;-78
2022/03/02 23:52:54;;;;;;;30.90;16.37;;;;;;;;;;10280853;28;20418;-77
2022/03/02 23:57:54;;;;;;;24.75;13.70;;;;;;;;;;10343666;28;20357;-74
